Denver, CO (80212)

21:20 MDT le 03 août 2015 (GMT -0600)
NW Denver | | Change Station
CLOSE
Current Station
Stations météorologiques personnelles
Location: Denver, CO
Altitude: 5384 ft
Stations météo à proximité

Alt. 5384 ft 39.78 °N, 105.04 °W | Updated 2 seconds ago

Nuageux
Nuageux
70.7 ° F
Paraît 76 ° F
N
0.0
Vent Variable Vent de Est
Gusts 0.0 mph

Aujourd'hui
Haut(e) -- | Bas -- ° F
--% Risque de précip.
Hier
Haut(e) -- | Bas -- ° F
Precip. -- pouce
6:00 AM 8:11 PM
Lune gibbeuse décroissante, 81% visible
Pression 29.93 pouce
Visibilité 10.0 Miles terrestres
Nuages Peu 7000 ft
Nuages épars 10000 ft
Nuageux 25000 ft
indice de chaleur 76 ° F
Point de rosée 56 ° F
Humidité 60%
Précipitations 0.13 pouce
Profondeur de la couche neigeuse Non disponible.
UV 0 sur 12
Pollen 7.70 sur 12
Qualité de l'air Non disponible.
Flu Activity Non disponible.
METAR KAPA 040253Z 16009KT 10SM FEW070 SCT100 BKN250 19/12 A3012 RMK AO2 SLP135 60000 T01940122 53003

More Conditions Fewer Conditions

Pression 29.93 pouce
Visibilité 10.0 Miles terrestres
Nuages Peu 7000 ft
Nuages épars 10000 ft
Nuageux 25000 ft
indice de chaleur 76 ° F
Point de rosée 56 ° F
Humidité 60%
Précipitations 0.13 pouce
Profondeur de la couche neigeuse Non disponible.
UV 0 sur 12
Pollen 7.70 sur 12
Qualité de l'air Non disponible.
Flu Activity Non disponible.
METAR KAPA 040253Z 16009KT 10SM FEW070 SCT100 BKN250 19/12 A3012 RMK AO2 SLP135 60000 T01940122 53003

More Conditions Fewer Conditions

10-Day Weather Forecast

×

Almanac

Astronomie

Aug. 03, 2015 Lever Coucher
Temps réel
Crépuscule civil
Crépuscule nautique
Crépuscule astronomique
Lune
Durée de lumière visible
Longueur du jour
Tomorrow will be .
, % of the Moon is Illuminated

Extrêmes aujourd'hui

State Highs State Lows

Community

WunderPhotos

Upload Photos

1,843,838 Photos téléchargées !

WunderBlogs® & News

Nearby

Qualité de l'air

  Qualité de l'air Indice de la qualité de l'air Polluant
Not available.

Épaisseur de neige

Station Depth Altitude

Activité sismique

Ville Distance Mag. Time & Date
Minimum magnitude displayed is 2.5.

Températures des eaux côtières

Lieu Température

Stations

Stations météo à proximité

Emplacement de la station Température Refroidissement éolien Point de rosée Humidité Vent Precip. Alt. Mise à jour Type